Shreve, Ohio
Current Conditions -  °F | °C
As of 6:56 PM on Thursday 18 Dec 2014 (Local Time) from KBJJ Reporting Station
Overcast Overcast  
Wind Chill: 19°   Ceiling: 1300
Heat Index: 27°   Visibility: 10mi
Dew Point: 23°   Wind: 7mph
Humidity: 85%   Direction: 250°WSW
Pressure: 30.17"   Gusts: NA
Location:  40.68°N, 82.02°W
Report Text: KBJJ 182356Z AUTO 25006KT 10SM OVC013 M03/M05 A3017 RMK AO2 SLP231 T10281050 11022 21028 55001 TSNO
Loading
Personal Weather Stations






























Interactive Weather Map New forecast layout! Learn more

10-Day Weather Forecast

Advertisements
Track Severe Weather on mobile